createdAt,value
2022-12-19T00:00:05.447Z,61.28
2022-12-19T00:02:39.596Z,61.03
2022-12-19T00:05:07.330Z,58.22
2022-12-19T00:07:34.480Z,60.90
2022-12-19T00:10:01.539Z,63.00
2022-12-19T00:12:28.655Z,57.45
2022-12-19T00:14:55.739Z,60.25
2022-12-19T00:17:25.518Z,61.35
2022-12-19T00:19:52.516Z,55.90
2022-12-19T00:22:19.660Z,66.55
2022-12-19T00:24:48.031Z,67.35
2022-12-19T00:27:15.185Z,66.55
2022-12-19T00:29:42.226Z,63.60
2022-12-19T00:32:09.522Z,61.38
2022-12-19T00:34:42.127Z,62.60
2022-12-19T00:37:09.305Z,68.57
2022-12-19T00:39:36.477Z,62.88
2022-12-19T00:42:03.605Z,64.32
2022-12-19T00:44:30.799Z,65.82
2022-12-19T00:46:59.147Z,64.78
2022-12-19T00:49:26.381Z,66.30
2022-12-19T00:51:53.613Z,57.45
2022-12-19T00:54:20.873Z,61.00
2022-12-19T00:56:48.025Z,61.72
2022-12-19T00:59:15.316Z,60.20
2022-12-19T01:01:45.519Z,56.67
2022-12-19T01:04:32.666Z,60.13
2022-12-19T01:07:03.248Z,62.30
2022-12-19T01:09:33.438Z,62.35
2022-12-19T01:12:21.011Z,61.50
2022-12-19T01:14:54.702Z,58.80
2022-12-19T01:17:26.118Z,65.40
2022-12-19T01:19:53.501Z,60.22
2022-12-19T01:22:21.092Z,65.78
2022-12-19T01:24:48.150Z,62.40
2022-12-19T01:27:15.817Z,67.50
2022-12-19T01:29:52.008Z,65.72
2022-12-19T01:32:20.871Z,62.80
2022-12-19T01:34:47.995Z,62.50
2022-12-19T01:37:18.758Z,62.63
2022-12-19T01:39:46.570Z,65.72
2022-12-19T01:42:23.394Z,70.93
2022-12-19T01:45:13.858Z,63.65
2022-12-19T01:47:55.345Z,63.60
2022-12-19T01:50:29.589Z,62.72
2022-12-19T01:52:58.319Z,56.97
2022-12-19T01:55:26.304Z,65.22
2022-12-19T01:57:56.446Z,65.60
2022-12-19T02:00:23.619Z,69.43
2022-12-19T02:03:05.402Z,62.42
2022-12-19T02:05:34.765Z,67.00
2022-12-19T02:08:02.988Z,72.82
2022-12-19T02:10:30.257Z,63.33
2022-12-19T02:12:57.630Z,63.75
2022-12-19T02:15:29.296Z,64.60
2022-12-19T02:18:03.728Z,60.80
2022-12-19T02:20:38.496Z,64.50
2022-12-19T02:23:32.982Z,73.07
2022-12-19T02:26:20.062Z,72.55
2022-12-19T02:28:54.925Z,78.05
2022-12-19T02:31:34.659Z,81.07
2022-12-19T02:34:25.791Z,82.75
2022-12-19T02:37:05.104Z,79.70
2022-12-19T02:39:39.629Z,82.93
2022-12-19T02:42:10.143Z,82.18
2022-12-19T02:44:45.690Z,85.22
2022-12-19T02:47:14.174Z,87.40
2022-12-19T02:49:42.650Z,83.70
2022-12-19T02:52:13.342Z,78.45
2022-12-19T02:54:43.561Z,80.97
2022-12-19T02:57:24.354Z,88.03
2022-12-19T03:00:03.794Z,89.50
2022-12-19T03:02:44.014Z,86.85
2022-12-19T03:05:26.565Z,91.93
2022-12-19T03:07:56.017Z,91.30
2022-12-19T03:10:37.117Z,89.97
2022-12-19T03:13:27.455Z,87.53
2022-12-19T03:15:54.771Z,91.53
2022-12-19T03:18:22.208Z,92.80
2022-12-19T03:21:12.528Z,91.53
2022-12-19T03:23:40.805Z,92.85
2022-12-19T03:26:12.518Z,94.95
2022-12-19T03:28:45.817Z,112.22
2022-12-19T03:31:15.144Z,100.40
2022-12-19T03:33:43.252Z,97.65
2022-12-19T03:36:16.116Z,97.97
2022-12-19T03:38:45.713Z,86.65
2022-12-19T03:41:16.373Z,84.78
2022-12-19T03:43:45.907Z,93.72
2022-12-19T03:46:20.202Z,94.50
2022-12-19T03:48:54.324Z,82.43
2022-12-19T03:51:48.684Z,67.63
2022-12-19T03:54:22.140Z,67.80
2022-12-19T03:56:51.120Z,83.82
2022-12-19T03:59:31.580Z,85.03
2022-12-19T04:01:59.419Z,85.47
2022-12-19T04:04:28.741Z,82.85
2022-12-19T04:06:56.765Z,91.18
2022-12-19T04:09:24.772Z,92.38
2022-12-19T04:11:55.279Z,93.53
2022-12-19T04:14:30.063Z,90.68
2022-12-19T04:17:10.439Z,95.00
2022-12-19T04:19:45.023Z,83.72
2022-12-19T04:22:22.628Z,92.93
2022-12-19T04:24:51.979Z,98.25
2022-12-19T04:27:20.911Z,92.60
2022-12-19T04:29:51.760Z,93.88
2022-12-19T04:32:19.918Z,89.55
2022-12-19T04:34:47.025Z,85.43
2022-12-19T04:37:14.171Z,88.28
2022-12-19T04:39:41.443Z,87.07
2022-12-19T04:42:08.528Z,91.20
2022-12-19T04:44:35.645Z,95.80
2022-12-19T04:47:02.869Z,100.35
2022-12-19T04:49:30.085Z,98.38
2022-12-19T04:51:57.388Z,102.20
2022-12-19T04:54:24.378Z,99.13
2022-12-19T04:56:53.192Z,108.30
2022-12-19T04:59:20.379Z,110.22
2022-12-19T05:01:47.733Z,127.03
2022-12-19T05:04:14.797Z,143.43
2022-12-19T05:06:42.073Z,123.15
2022-12-19T05:09:11.757Z,112.13
2022-12-19T05:11:38.854Z,121.28
2022-12-19T05:14:06.124Z,131.70
2022-12-19T05:16:33.755Z,127.95
2022-12-19T05:19:01.684Z,125.20
2022-12-19T05:21:28.965Z,122.85
2022-12-19T05:23:56.609Z,126.47
2022-12-19T05:26:23.713Z,118.22
2022-12-19T05:28:50.822Z,111.30
2022-12-19T05:31:20.509Z,113.38
2022-12-19T05:33:49.064Z,105.40
2022-12-19T05:36:18.195Z,110.20
2022-12-19T05:38:45.339Z,100.20
2022-12-19T05:41:15.243Z,93.68
2022-12-19T05:43:44.178Z,100.00
2022-12-19T05:46:12.114Z,99.10
2022-12-19T05:48:39.377Z,103.80
2022-12-19T05:51:06.733Z,102.53
2022-12-19T05:53:36.838Z,109.88
2022-12-19T05:56:08.646Z,105.63
2022-12-19T05:58:37.158Z,103.07
2022-12-19T06:01:07.454Z,99.80
2022-12-19T06:03:35.394Z,103.35
2022-12-19T06:06:05.042Z,109.57
2022-12-19T06:08:32.558Z,97.82
2022-12-19T06:11:00.917Z,100.07
2022-12-19T06:13:29.135Z,107.03
2022-12-19T06:16:01.394Z,106.90
2022-12-19T06:18:29.188Z,103.20
2022-12-19T06:21:06.397Z,98.10
2022-12-19T06:23:35.985Z,98.80
2022-12-19T06:26:06.102Z,103.85
2022-12-19T06:28:34.698Z,92.28
2022-12-19T06:31:04.780Z,96.18
2022-12-19T06:33:32.779Z,92.97
2022-12-19T06:36:06.710Z,99.22
2022-12-19T06:38:35.295Z,83.10
2022-12-19T06:41:23.856Z,98.70
2022-12-19T06:43:53.543Z,99.53
2022-12-19T06:46:21.177Z,97.30
2022-12-19T06:48:48.469Z,93.93
2022-12-19T06:51:15.774Z,97.68
2022-12-19T06:53:42.884Z,97.40
2022-12-19T06:56:11.967Z,98.75
2022-12-19T06:58:39.341Z,89.35
2022-12-19T07:01:06.858Z,101.82
2022-12-19T07:03:40.685Z,98.43
2022-12-19T07:06:08.247Z,76.07
2022-12-19T07:08:35.729Z,102.03
2022-12-19T07:11:03.114Z,99.20
2022-12-19T07:13:30.630Z,98.43
2022-12-19T07:16:01.426Z,101.38
2022-12-19T07:18:34.324Z,96.00
2022-12-19T07:21:02.303Z,91.18
2022-12-19T07:23:30.129Z,94.85
2022-12-19T07:25:58.264Z,92.25
2022-12-19T07:28:25.537Z,91.40
2022-12-19T07:30:52.887Z,95.43
2022-12-19T07:33:21.963Z,89.00
2022-12-19T07:35:49.443Z,85.90
2022-12-19T07:38:16.737Z,92.20
2022-12-19T07:40:44.097Z,93.10
2022-12-19T07:43:11.117Z,88.20
2022-12-19T07:45:39.498Z,81.32
2022-12-19T07:48:07.921Z,91.80
2022-12-19T07:50:34.985Z,79.20
2022-12-19T07:53:02.327Z,90.55
2022-12-19T07:55:29.889Z,83.40
2022-12-19T07:57:56.990Z,85.63
2022-12-19T08:00:24.565Z,96.18
2022-12-19T08:02:51.927Z,84.53
2022-12-19T08:05:19.385Z,85.95
2022-12-19T08:07:46.516Z,89.10
2022-12-19T08:10:15.111Z,90.47
2022-12-19T08:12:42.498Z,90.60
2022-12-19T08:15:11.252Z,92.53
2022-12-19T08:17:39.780Z,86.50
2022-12-19T08:20:09.115Z,84.85
2022-12-19T08:22:36.185Z,90.25
2022-12-19T08:25:03.543Z,81.70
2022-12-19T08:27:30.722Z,83.72
2022-12-19T08:29:57.958Z,85.50
2022-12-19T08:32:25.078Z,84.38
2022-12-19T08:34:52.592Z,84.90
2022-12-19T08:37:19.901Z,82.47
2022-12-19T08:39:46.984Z,80.32
2022-12-19T08:42:14.452Z,86.50
2022-12-19T08:44:41.682Z,98.28
2022-12-19T08:47:09.749Z,93.30
2022-12-19T08:49:36.897Z,90.55
2022-12-19T08:52:04.367Z,89.38
2022-12-19T08:54:31.761Z,98.97
2022-12-19T08:56:59.342Z,83.30
2022-12-19T08:59:30.965Z,77.78
2022-12-19T09:02:01.297Z,79.45
2022-12-19T09:05:48.200Z,74.95
2022-12-19T09:07:17.278Z,80.30
2022-12-19T09:09:45.081Z,81.00
2022-12-19T09:12:14.453Z,84.57
2022-12-19T09:14:41.723Z,81.28
2022-12-19T09:17:09.603Z,84.63
2022-12-19T09:19:36.915Z,78.93
2022-12-19T09:22:05.083Z,76.57
2022-12-19T09:24:32.480Z,86.05
2022-12-19T09:26:59.931Z,81.53
2022-12-19T09:29:32.194Z,76.13
2022-12-19T09:32:02.441Z,76.03
2022-12-19T09:34:37.871Z,78.05
2022-12-19T09:37:08.474Z,74.82
2022-12-19T09:39:36.658Z,80.13
2022-12-19T09:42:13.687Z,72.68
2022-12-19T09:45:00.889Z,73.63
2022-12-19T09:47:31.401Z,70.43
2022-12-19T09:50:00.463Z,68.97
2022-12-19T09:52:27.808Z,73.75
2022-12-19T09:55:19.687Z,67.00
2022-12-19T09:57:59.343Z,72.72
2022-12-19T10:00:35.227Z,68.95
2022-12-19T10:03:05.697Z,75.30
2022-12-19T10:06:52.533Z,70.47
2022-12-19T10:09:15.797Z,71.18
2022-12-19T10:12:38.646Z,63.28
2022-12-19T10:17:32.488Z,70.85
2022-12-19T10:23:26.593Z,59.55
2022-12-19T10:26:03.374Z,66.18
2022-12-19T10:28:51.647Z,72.00
2022-12-19T10:31:24.634Z,65.95
2022-12-19T10:33:58.520Z,67.45
2022-12-19T10:36:55.995Z,65.53
2022-12-19T10:39:38.352Z,64.10
2022-12-19T10:42:15.983Z,68.38
2022-12-19T10:44:45.158Z,63.40
2022-12-19T10:47:16.600Z,66.40
2022-12-19T10:49:43.776Z,67.72
2022-12-19T10:52:12.535Z,65.70
2022-12-19T10:54:41.927Z,68.88
2022-12-19T10:57:27.055Z,60.63
2022-12-19T11:00:06.064Z,63.80
2022-12-19T11:02:39.867Z,69.40
2022-12-19T11:05:24.328Z,67.28
2022-12-19T11:08:07.095Z,67.28
2022-12-19T11:12:26.351Z,66.63
2022-12-19T11:19:24.133Z,68.03
2022-12-19T11:20:55.455Z,66.38
2022-12-19T11:29:26.119Z,52.10
2022-12-19T11:29:42.225Z,69.97
2022-12-19T11:29:45.690Z,65.70
2022-12-19T11:30:48.371Z,72.28
2022-12-19T11:33:28.899Z,65.93
2022-12-19T11:35:59.125Z,78.95
2022-12-19T11:38:48.737Z,64.53
2022-12-19T11:41:22.454Z,66.97
2022-12-19T11:43:50.026Z,49.27
2022-12-19T11:46:45.223Z,62.08
2022-12-19T11:52:00.988Z,55.20
2022-12-19T11:54:32.304Z,62.60
2022-12-19T11:57:00.204Z,64.55
2022-12-19T11:59:34.935Z,60.35
2022-12-19T12:02:37.743Z,60.00
2022-12-19T12:05:25.924Z,57.08
2022-12-19T12:10:17.845Z,56.92
2022-12-19T12:15:25.478Z,57.42
2022-12-19T12:23:05.514Z,57.03
2022-12-19T12:31:09.000Z,57.92
2022-12-19T12:31:29.754Z,57.15
2022-12-19T12:31:39.617Z,62.38
2022-12-19T12:31:42.784Z,61.38
2022-12-19T12:31:53.470Z,62.05
2022-12-19T12:35:51.345Z,58.80
2022-12-19T12:39:14.549Z,62.88
2022-12-19T12:42:25.815Z,59.10
2022-12-19T12:44:57.277Z,59.67
2022-12-19T12:47:27.134Z,64.40
2022-12-19T12:50:03.047Z,59.53
2022-12-19T12:52:44.830Z,52.13
2022-12-19T12:55:34.249Z,57.05
2022-12-19T12:58:01.444Z,58.45
2022-12-19T13:00:31.563Z,61.80
2022-12-19T13:03:18.986Z,59.40
2022-12-19T13:05:46.401Z,59.83
2022-12-19T13:08:34.694Z,59.35
2022-12-19T13:11:06.565Z,65.75
2022-12-19T13:13:55.037Z,58.25
2022-12-19T13:16:48.725Z,58.60
2022-12-19T13:19:34.427Z,63.65
2022-12-19T13:22:05.284Z,57.25
2022-12-19T13:24:53.265Z,67.43
2022-12-19T13:27:20.425Z,61.00
2022-12-19T13:30:01.618Z,58.20
2022-12-19T13:32:44.911Z,64.72
2022-12-19T13:36:49.340Z,58.03
2022-12-19T13:39:56.638Z,65.90
2022-12-19T13:41:47.855Z,57.83
2022-12-19T13:44:19.846Z,63.13
2022-12-19T13:46:47.574Z,66.10
2022-12-19T13:49:23.542Z,63.15
2022-12-19T13:51:57.142Z,64.85
2022-12-19T13:54:32.264Z,59.33
2022-12-19T13:57:03.045Z,59.28
2022-12-19T13:59:40.059Z,64.57
2022-12-19T14:02:18.160Z,63.65
2022-12-19T14:04:46.099Z,66.63
2022-12-19T14:07:43.238Z,65.43
2022-12-19T14:11:33.190Z,62.28
2022-12-19T14:13:52.869Z,65.28
2022-12-19T14:16:44.004Z,67.75
2022-12-19T14:19:19.940Z,73.72
2022-12-19T14:22:09.947Z,67.82
2022-12-19T14:24:34.651Z,74.43
2022-12-19T14:28:17.439Z,68.28
2022-12-19T14:30:28.283Z,66.30
2022-12-19T14:33:45.283Z,71.45
2022-12-19T14:36:08.790Z,78.63
2022-12-19T14:39:24.341Z,80.22
2022-12-19T14:41:48.945Z,74.18
2022-12-19T14:52:34.730Z,68.90
2022-12-19T14:53:34.272Z,75.70
2022-12-19T14:54:15.829Z,76.88
2022-12-19T14:54:32.221Z,69.10
2022-12-19T14:59:01.765Z,74.53
2022-12-19T15:01:33.149Z,75.80
2022-12-19T15:04:51.191Z,72.47
2022-12-19T15:07:06.945Z,70.82
2022-12-19T15:10:58.188Z,79.88
2022-12-19T15:14:04.155Z,68.28
2022-12-19T15:16:04.908Z,74.38
2022-12-19T15:18:33.303Z,72.40
2022-12-19T15:21:04.137Z,69.82
2022-12-19T15:23:32.233Z,72.85
2022-12-19T15:26:05.612Z,72.88
2022-12-19T15:28:42.123Z,71.18
2022-12-19T15:31:33.148Z,73.82
2022-12-19T15:36:49.598Z,73.15
2022-12-19T15:39:17.693Z,73.30
2022-12-19T15:41:47.714Z,77.47
2022-12-19T15:44:20.612Z,73.00
2022-12-19T15:46:49.362Z,70.32
2022-12-19T15:49:18.787Z,75.85
2022-12-19T15:51:46.975Z,75.80
2022-12-19T15:57:01.444Z,72.75
2022-12-19T15:59:37.548Z,78.13
2022-12-19T16:02:16.658Z,77.18
2022-12-19T16:04:45.481Z,76.18
2022-12-19T16:07:16.750Z,75.88
2022-12-19T16:09:44.106Z,81.82
2022-12-19T16:12:19.304Z,78.70
2022-12-19T16:14:49.343Z,72.25
2022-12-19T16:17:21.396Z,76.93
2022-12-19T16:19:48.807Z,77.88
2022-12-19T16:22:19.755Z,77.40
2022-12-19T16:24:47.498Z,77.68
2022-12-19T16:27:32.532Z,80.47
2022-12-19T16:30:07.539Z,80.85
2022-12-19T16:32:35.157Z,84.28
2022-12-19T16:35:02.451Z,82.20
2022-12-19T16:37:32.427Z,87.00
2022-12-19T16:39:59.659Z,78.53
2022-12-19T16:42:28.374Z,92.22
2022-12-19T16:44:55.569Z,84.25
2022-12-19T16:47:23.233Z,93.93
2022-12-19T16:49:50.410Z,87.53
2022-12-19T16:52:17.887Z,88.38
2022-12-19T16:54:45.109Z,83.55
2022-12-19T16:57:21.255Z,77.00
2022-12-19T16:59:49.935Z,79.20
2022-12-19T17:02:36.870Z,83.70
2022-12-19T17:05:05.015Z,79.32
2022-12-19T17:07:32.461Z,90.38
2022-12-19T17:09:59.795Z,91.63
2022-12-19T17:12:27.903Z,90.75
2022-12-19T17:14:55.115Z,90.55
2022-12-19T17:17:22.402Z,95.30
2022-12-19T17:19:49.557Z,97.45
2022-12-19T17:22:18.839Z,97.10
2022-12-19T17:24:46.892Z,98.57
2022-12-19T17:27:14.364Z,97.43
2022-12-19T17:29:41.408Z,102.85
2022-12-19T17:32:11.329Z,104.00
2022-12-19T17:34:38.467Z,115.72
2022-12-19T17:37:05.904Z,97.93
2022-12-19T17:39:34.841Z,104.13
2022-12-19T17:42:13.903Z,98.97
2022-12-19T17:44:41.006Z,104.40
2022-12-19T17:47:11.507Z,101.10
2022-12-19T17:49:39.222Z,99.45
2022-12-19T17:52:13.696Z,106.60
2022-12-19T17:54:41.007Z,104.25
2022-12-19T17:57:14.334Z,100.57
2022-12-19T17:59:42.411Z,112.55
2022-12-19T18:02:20.392Z,111.03
2022-12-19T18:04:47.784Z,100.72
2022-12-19T18:07:17.069Z,105.97
2022-12-19T18:09:44.923Z,108.22
2022-12-19T18:12:12.179Z,105.95
2022-12-19T18:14:39.276Z,116.70
2022-12-19T18:17:06.658Z,109.18
2022-12-19T18:19:35.092Z,113.32
2022-12-19T18:22:02.381Z,114.53
2022-12-19T18:24:29.872Z,114.53
2022-12-19T18:26:57.233Z,113.07
2022-12-19T18:29:25.935Z,112.22
2022-12-19T18:31:54.486Z,116.32
2022-12-19T18:34:25.046Z,116.22
2022-12-19T18:36:53.364Z,116.75
2022-12-19T18:39:23.168Z,112.05
2022-12-19T18:41:51.747Z,108.53
2022-12-19T18:44:19.388Z,121.22
2022-12-19T18:46:49.999Z,126.47
2022-12-19T18:49:17.715Z,122.57
2022-12-19T18:51:44.976Z,121.72
2022-12-19T18:54:17.944Z,117.78
2022-12-19T18:56:45.532Z,127.72
2022-12-19T18:59:12.872Z,123.85
2022-12-19T19:01:43.783Z,115.28
2022-12-19T19:04:13.472Z,125.32
2022-12-19T19:06:46.694Z,121.85
2022-12-19T19:09:18.579Z,116.25
2022-12-19T19:12:06.181Z,119.68
2022-12-19T19:14:33.511Z,112.57
2022-12-19T19:17:00.838Z,114.70
2022-12-19T19:19:28.307Z,124.00
2022-12-19T19:21:55.575Z,117.20
2022-12-19T19:24:23.432Z,120.22
2022-12-19T19:26:50.575Z,126.00
2022-12-19T19:29:19.847Z,120.47
2022-12-19T19:31:49.457Z,127.40
2022-12-19T19:34:27.063Z,120.80
2022-12-19T19:36:56.304Z,123.47
2022-12-19T19:39:24.978Z,116.00
2022-12-19T19:41:52.460Z,126.05
2022-12-19T19:44:19.856Z,132.82
2022-12-19T19:46:47.069Z,125.65
2022-12-19T19:49:14.562Z,112.97
2022-12-19T19:51:41.689Z,121.10
2022-12-19T19:54:09.259Z,114.63
2022-12-19T19:56:36.483Z,120.28
2022-12-19T19:59:03.927Z,130.38
2022-12-19T20:01:31.167Z,108.13
2022-12-19T20:03:58.281Z,111.78
2022-12-19T20:06:25.729Z,118.75
2022-12-19T20:08:53.014Z,119.63
2022-12-19T20:11:20.874Z,112.15
2022-12-19T20:13:48.138Z,121.65
2022-12-19T20:16:18.833Z,119.03
2022-12-19T20:18:50.682Z,105.55
2022-12-19T20:21:20.579Z,109.70
2022-12-19T20:23:48.419Z,116.50
2022-12-19T20:26:16.613Z,112.30
2022-12-19T20:28:48.954Z,118.70
2022-12-19T20:31:22.543Z,109.75
2022-12-19T20:33:50.716Z,112.78
2022-12-19T20:36:18.293Z,117.22
2022-12-19T20:38:46.135Z,110.25
2022-12-19T20:41:14.189Z,117.70
2022-12-19T20:43:41.517Z,108.07
2022-12-19T20:46:14.068Z,110.68
2022-12-19T20:48:42.200Z,110.03
2022-12-19T20:51:10.225Z,119.43
2022-12-19T20:53:38.903Z,108.53
2022-12-19T20:56:07.536Z,113.65
2022-12-19T20:58:36.857Z,101.47
2022-12-19T21:01:07.337Z,107.80
2022-12-19T21:03:35.979Z,108.40
2022-12-19T21:06:03.766Z,111.78
2022-12-19T21:08:33.406Z,107.90
2022-12-19T21:11:02.331Z,102.10
2022-12-19T21:13:29.771Z,106.50
2022-12-19T21:15:58.889Z,115.15
2022-12-19T21:18:26.917Z,110.97
2022-12-19T21:20:54.702Z,103.57
2022-12-19T21:23:23.074Z,117.53
2022-12-19T21:25:50.863Z,115.43
2022-12-19T21:28:18.444Z,107.55
2022-12-19T21:30:45.812Z,108.68
2022-12-19T21:33:13.234Z,112.03
2022-12-19T21:35:40.551Z,115.03
2022-12-19T21:38:07.643Z,123.25
2022-12-19T21:40:36.825Z,112.90
2022-12-19T21:43:11.483Z,118.57
2022-12-19T21:45:39.842Z,118.43
2022-12-19T21:48:07.018Z,124.85
2022-12-19T21:50:34.228Z,116.72
2022-12-19T21:53:01.504Z,102.57
2022-12-19T21:55:28.646Z,114.55
2022-12-19T21:57:55.957Z,110.50
2022-12-19T22:00:23.216Z,107.22
2022-12-19T22:03:12.702Z,110.03
2022-12-19T22:05:37.607Z,105.68
2022-12-19T22:08:05.102Z,111.78
2022-12-19T22:10:32.213Z,108.03
2022-12-19T22:12:59.525Z,114.57
2022-12-19T22:15:26.535Z,110.68
2022-12-19T22:17:53.736Z,109.82
2022-12-19T22:20:20.747Z,114.18
2022-12-19T22:22:47.768Z,107.82
2022-12-19T22:25:15.588Z,114.35
2022-12-19T22:27:42.584Z,116.50
2022-12-19T22:30:11.261Z,115.97
2022-12-19T22:32:38.748Z,110.45
2022-12-19T22:35:06.455Z,114.05
2022-12-19T22:37:33.668Z,107.93
2022-12-19T22:40:04.226Z,113.35
2022-12-19T22:42:31.291Z,120.40
2022-12-19T22:44:58.511Z,110.68
2022-12-19T22:47:25.544Z,108.90
2022-12-19T22:49:52.939Z,108.75
2022-12-19T22:52:20.044Z,116.22
2022-12-19T22:54:47.057Z,102.15
2022-12-19T22:57:14.120Z,118.18
2022-12-19T22:59:42.225Z,109.20
2022-12-19T23:02:09.712Z,107.90
2022-12-19T23:04:36.936Z,107.03
2022-12-19T23:07:04.052Z,99.53
2022-12-19T23:09:31.154Z,107.20
2022-12-19T23:11:58.173Z,106.78
2022-12-19T23:14:25.239Z,107.80
2022-12-19T23:16:52.339Z,109.78
2022-12-19T23:19:19.469Z,108.70
2022-12-19T23:21:46.822Z,107.93
2022-12-19T23:24:14.028Z,104.40
2022-12-19T23:26:41.895Z,104.63
2022-12-19T23:29:11.838Z,103.45
2022-12-19T23:31:42.095Z,104.80
2022-12-19T23:34:10.630Z,102.90
2022-12-19T23:37:10.233Z,98.25
2022-12-19T23:39:25.396Z,93.20
2022-12-19T23:41:52.449Z,95.28
2022-12-19T23:44:19.701Z,110.43
2022-12-19T23:46:46.740Z,106.03
2022-12-19T23:49:13.809Z,112.65
2022-12-19T23:51:40.791Z,100.88
2022-12-19T23:54:08.944Z,103.53
2022-12-19T23:56:36.422Z,103.65
2022-12-19T23:59:03.730Z,97.82
